sensor_id;sensor_type;location;lat;lon;timestamp;pressure;altitude;pressure_sealevel;temperature;humidity
42519;BME280;28147;47.520;18.920;2023-10-08T00:00:49;98594.94;;;20.55;40.86
42519;BME280;28147;47.520;18.920;2023-10-08T00:03:15;98595.59;;;20.66;40.60
42519;BME280;28147;47.520;18.920;2023-10-08T00:05:46;98585.13;;;20.59;40.33
42519;BME280;28147;47.520;18.920;2023-10-08T00:08:11;98575.59;;;20.81;40.28
42519;BME280;28147;47.520;18.920;2023-10-08T00:10:39;98569.09;;;20.82;40.38
42519;BME280;28147;47.520;18.920;2023-10-08T00:13:11;98569.56;;;20.70;40.25
42519;BME280;28147;47.520;18.920;2023-10-08T00:15:39;98574.91;;;20.56;39.47
42519;BME280;28147;47.520;18.920;2023-10-08T00:18:15;98568.47;;;20.52;40.21
42519;BME280;28147;47.520;18.920;2023-10-08T00:20:41;98562.25;;;20.52;39.34
42519;BME280;28147;47.520;18.920;2023-10-08T00:23:13;98561.09;;;20.58;38.55
42519;BME280;28147;47.520;18.920;2023-10-08T00:25:42;98562.78;;;20.54;38.79
42519;BME280;28147;47.520;18.920;2023-10-08T00:28:12;98564.72;;;20.48;38.03
42519;BME280;28147;47.520;18.920;2023-10-08T00:30:39;98560.31;;;20.20;37.67
42519;BME280;28147;47.520;18.920;2023-10-08T00:33:07;98566.28;;;20.54;37.25
42519;BME280;28147;47.520;18.920;2023-10-08T00:35:40;98559.09;;;20.63;36.95
42519;BME280;28147;47.520;18.920;2023-10-08T00:38:10;98559.09;;;20.63;35.95
42519;BME280;28147;47.520;18.920;2023-10-08T00:40:45;98558.59;;;20.42;37.81
42519;BME280;28147;47.520;18.920;2023-10-08T00:45:57;98546.91;;;20.47;37.81
42519;BME280;28147;47.520;18.920;2023-10-08T00:48:25;98548.06;;;20.22;39.92
42519;BME280;28147;47.520;18.920;2023-10-08T00:50:57;98550.41;;;20.29;38.85
42519;BME280;28147;47.520;18.920;2023-10-08T00:53:41;98551.16;;;20.15;39.66
42519;BME280;28147;47.520;18.920;2023-10-08T00:56:09;98532.75;;;20.17;39.53
42519;BME280;28147;47.520;18.920;2023-10-08T00:58:40;98531.59;;;20.05;39.39
42519;BME280;28147;47.520;18.920;2023-10-08T01:01:06;98527.19;;;20.09;39.51
42519;BME280;28147;47.520;18.920;2023-10-08T01:03:36;98534.31;;;19.81;40.73
42519;BME280;28147;47.520;18.920;2023-10-08T01:06:04;98538.00;;;19.90;40.56
42519;BME280;28147;47.520;18.920;2023-10-08T01:08:34;98527.19;;;19.90;39.67
42519;BME280;28147;47.520;18.920;2023-10-08T01:11:23;98521.69;;;19.76;40.69
42519;BME280;28147;47.520;18.920;2023-10-08T01:14:08;98522.88;;;19.70;39.73
42519;BME280;28147;47.520;18.920;2023-10-08T01:16:33;98514.78;;;19.70;39.91
42519;BME280;28147;47.520;18.920;2023-10-08T01:19:00;98514.41;;;19.53;40.89
42519;BME280;28147;47.520;18.920;2023-10-08T01:21:28;98518.22;;;19.52;40.74
42519;BME280;28147;47.520;18.920;2023-10-08T01:24:01;98521.75;;;19.47;41.24
42519;BME280;28147;47.520;18.920;2023-10-08T01:26:28;98513.44;;;19.43;41.17
42519;BME280;28147;47.520;18.920;2023-10-08T01:28:57;98500.56;;;19.35;41.26
42519;BME280;28147;47.520;18.920;2023-10-08T01:31:22;98500.59;;;19.54;41.37
42519;BME280;28147;47.520;18.920;2023-10-08T01:33:48;98506.13;;;19.20;42.62
42519;BME280;28147;47.520;18.920;2023-10-08T01:36:16;98496.09;;;19.26;41.93
42519;BME280;28147;47.520;18.920;2023-10-08T01:38:41;98507.00;;;19.15;42.39
42519;BME280;28147;47.520;18.920;2023-10-08T01:41:08;98499.25;;;19.33;41.12
42519;BME280;28147;47.520;18.920;2023-10-08T01:43:56;98495.28;;;19.01;40.93
42519;BME280;28147;47.520;18.920;2023-10-08T01:46:25;98487.63;;;19.56;39.67
42519;BME280;28147;47.520;18.920;2023-10-08T01:48:51;98485.56;;;19.48;41.18
42519;BME280;28147;47.520;18.920;2023-10-08T01:51:21;98480.09;;;19.53;40.25
42519;BME280;28147;47.520;18.920;2023-10-08T01:54:02;98479.38;;;19.48;41.33
42519;BME280;28147;47.520;18.920;2023-10-08T01:56:29;98471.78;;;19.50;40.95
42519;BME280;28147;47.520;18.920;2023-10-08T01:58:55;98472.03;;;19.29;42.33
42519;BME280;28147;47.520;18.920;2023-10-08T02:01:21;98483.41;;;19.26;42.13
42519;BME280;28147;47.520;18.920;2023-10-08T02:03:47;98481.47;;;19.08;43.13
42519;BME280;28147;47.520;18.920;2023-10-08T02:06:13;98479.53;;;19.13;42.84
42519;BME280;28147;47.520;18.920;2023-10-08T02:08:38;98478.91;;;19.16;42.19
42519;BME280;28147;47.520;18.920;2023-10-08T02:11:04;98463.66;;;19.07;42.56
42519;BME280;28147;47.520;18.920;2023-10-08T02:13:29;98461.59;;;19.23;42.01
42519;BME280;28147;47.520;18.920;2023-10-08T02:15:55;98456.72;;;19.25;41.78
42519;BME280;28147;47.520;18.920;2023-10-08T02:18:21;98463.94;;;19.29;39.61
42519;BME280;28147;47.520;18.920;2023-10-08T02:20:48;98463.63;;;19.55;39.58
42519;BME280;28147;47.520;18.920;2023-10-08T02:23:14;98455.25;;;19.75;39.73
42519;BME280;28147;47.520;18.920;2023-10-08T02:25:40;98462.41;;;19.85;40.10
42519;BME280;28147;47.520;18.920;2023-10-08T02:28:06;98463.31;;;19.56;40.34
42519;BME280;28147;47.520;18.920;2023-10-08T02:30:36;98456.81;;;19.62;41.00
42519;BME280;28147;47.520;18.920;2023-10-08T02:33:02;98444.13;;;19.58;40.88
42519;BME280;28147;47.520;18.920;2023-10-08T02:35:27;98447.97;;;19.76;40.16
42519;BME280;28147;47.520;18.920;2023-10-08T02:37:53;98442.75;;;19.60;40.41
42519;BME280;28147;47.520;18.920;2023-10-08T02:40:20;98446.38;;;19.51;40.55
42519;BME280;28147;47.520;18.920;2023-10-08T02:42:53;98448.28;;;19.50;42.10
42519;BME280;28147;47.520;18.920;2023-10-08T02:45:26;98453.41;;;19.52;41.42
42519;BME280;28147;47.520;18.920;2023-10-08T02:47:51;98454.13;;;19.57;41.64
42519;BME280;28147;47.520;18.920;2023-10-08T02:50:19;98448.41;;;19.83;41.51
42519;BME280;28147;47.520;18.920;2023-10-08T02:52:44;98457.31;;;19.83;40.30
42519;BME280;28147;47.520;18.920;2023-10-08T02:55:11;98452.22;;;19.82;41.04
42519;BME280;28147;47.520;18.920;2023-10-08T02:57:52;98437.44;;;19.55;40.79
42519;BME280;28147;47.520;18.920;2023-10-08T03:00:18;98430.34;;;19.16;40.30
42519;BME280;28147;47.520;18.920;2023-10-08T03:02:45;98433.59;;;19.37;40.08
42519;BME280;28147;47.520;18.920;2023-10-08T03:05:11;98442.75;;;19.60;39.67
42519;BME280;28147;47.520;18.920;2023-10-08T03:07:38;98425.16;;;19.20;41.09
42519;BME280;28147;47.520;18.920;2023-10-08T03:10:05;98429.78;;;19.62;40.36
42519;BME280;28147;47.520;18.920;2023-10-08T03:12:46;98427.47;;;19.51;41.35
42519;BME280;28147;47.520;18.920;2023-10-08T03:15:13;98426.84;;;19.40;41.21
42519;BME280;28147;47.520;18.920;2023-10-08T03:17:41;98427.66;;;19.59;40.51
42519;BME280;28147;47.520;18.920;2023-10-08T03:20:17;98422.06;;;19.32;41.64
42519;BME280;28147;47.520;18.920;2023-10-08T03:23:03;98415.66;;;19.47;41.29
42519;BME280;28147;47.520;18.920;2023-10-08T03:25:32;98416.53;;;19.42;41.02
42519;BME280;28147;47.520;18.920;2023-10-08T03:28:07;98410.19;;;19.33;41.27
42519;BME280;28147;47.520;18.920;2023-10-08T03:30:33;98409.78;;;19.20;41.77
42519;BME280;28147;47.520;18.920;2023-10-08T03:33:13;98397.25;;;19.30;41.02
42519;BME280;28147;47.520;18.920;2023-10-08T03:35:47;98391.00;;;19.53;40.83
42519;BME280;28147;47.520;18.920;2023-10-08T03:38:12;98399.97;;;19.49;40.44
42519;BME280;28147;47.520;18.920;2023-10-08T03:40:47;98387.38;;;19.63;39.88
42519;BME280;28147;47.520;18.920;2023-10-08T03:43:15;98382.06;;;20.09;39.10
42519;BME280;28147;47.520;18.920;2023-10-08T03:45:48;98377.25;;;20.06;39.17
42519;BME280;28147;47.520;18.920;2023-10-08T03:48:19;98364.66;;;20.15;38.44
42519;BME280;28147;47.520;18.920;2023-10-08T03:50:48;98358.72;;;20.46;38.04
42519;BME280;28147;47.520;18.920;2023-10-08T03:53:22;98366.41;;;20.39;38.48
42519;BME280;28147;47.520;18.920;2023-10-08T03:55:48;98374.75;;;20.56;37.86
42519;BME280;28147;47.520;18.920;2023-10-08T03:58:17;98378.72;;;20.45;38.65
42519;BME280;28147;47.520;18.920;2023-10-08T04:00:53;98380.16;;;20.56;38.09
42519;BME280;28147;47.520;18.920;2023-10-08T04:03:36;98387.28;;;20.66;38.17
42519;BME280;28147;47.520;18.920;2023-10-08T04:06:16;98376.97;;;20.54;38.34
42519;BME280;28147;47.520;18.920;2023-10-08T04:08:41;98360.69;;;20.40;38.60
42519;BME280;28147;47.520;18.920;2023-10-08T04:11:23;98375.22;;;20.31;38.68
42519;BME280;28147;47.520;18.920;2023-10-08T04:14:01;98381.78;;;20.57;38.37
42519;BME280;28147;47.520;18.920;2023-10-08T04:16:28;98388.69;;;20.17;39.70
42519;BME280;28147;47.520;18.920;2023-10-08T04:18:57;98376.06;;;20.59;38.65
42519;BME280;28147;47.520;18.920;2023-10-08T04:21:28;98379.19;;;20.80;38.11
42519;BME280;28147;47.520;18.920;2023-10-08T04:23:53;98368.25;;;20.71;38.55
42519;BME280;28147;47.520;18.920;2023-10-08T04:26:22;98378.56;;;20.97;38.08
42519;BME280;28147;47.520;18.920;2023-10-08T04:28:54;98377.19;;;20.99;37.93
42519;BME280;28147;47.520;18.920;2023-10-08T04:31:22;98381.03;;;21.21;38.14
42519;BME280;28147;47.520;18.920;2023-10-08T04:33:53;98379.03;;;21.40;37.41
42519;BME280;28147;47.520;18.920;2023-10-08T04:36:20;98383.75;;;21.48;36.91
42519;BME280;28147;47.520;18.920;2023-10-08T04:38:46;98381.94;;;21.30;37.37
42519;BME280;28147;47.520;18.920;2023-10-08T04:41:16;98379.31;;;21.52;37.15
42519;BME280;28147;47.520;18.920;2023-10-08T04:43:45;98369.88;;;21.50;37.77
42519;BME280;28147;47.520;18.920;2023-10-08T04:46:10;98371.44;;;21.65;37.14
42519;BME280;28147;47.520;18.920;2023-10-08T04:48:46;98375.88;;;21.60;37.46
42519;BME280;28147;47.520;18.920;2023-10-08T04:51:11;98384.09;;;21.55;37.07
42519;BME280;28147;47.520;18.920;2023-10-08T04:53:40;98390.53;;;21.59;37.36
42519;BME280;28147;47.520;18.920;2023-10-08T04:56:12;98400.88;;;21.44;37.17
42519;BME280;28147;47.520;18.920;2023-10-08T04:58:45;98395.66;;;21.47;37.41
42519;BME280;28147;47.520;18.920;2023-10-08T05:01:14;98389.16;;;21.48;37.33
42519;BME280;28147;47.520;18.920;2023-10-08T05:03:48;98397.97;;;21.40;37.22
42519;BME280;28147;47.520;18.920;2023-10-08T05:06:27;98398.66;;;21.59;37.08
42519;BME280;28147;47.520;18.920;2023-10-08T05:11:38;98404.69;;;21.56;36.98
42519;BME280;28147;47.520;18.920;2023-10-08T05:14:24;98403.44;;;21.62;36.68
42519;BME280;28147;47.520;18.920;2023-10-08T05:17:02;98414.06;;;21.73;36.64
42519;BME280;28147;47.520;18.920;2023-10-08T05:19:35;98417.16;;;21.80;36.50
42519;BME280;28147;47.520;18.920;2023-10-08T05:22:10;98418.69;;;21.72;36.81
42519;BME280;28147;47.520;18.920;2023-10-08T05:24:56;98413.56;;;21.93;36.53
42519;BME280;28147;47.520;18.920;2023-10-08T05:27:52;98414.75;;;21.78;36.81
42519;BME280;28147;47.520;18.920;2023-10-08T05:30:25;98403.47;;;21.85;37.24
42519;BME280;28147;47.520;18.920;2023-10-08T05:32:57;98400.94;;;22.11;36.82
42519;BME280;28147;47.520;18.920;2023-10-08T05:35:40;98409.25;;;21.70;36.71
42519;BME280;28147;47.520;18.920;2023-10-08T05:38:16;98405.44;;;21.93;36.96
42519;BME280;28147;47.520;18.920;2023-10-08T05:40:48;98401.56;;;21.85;37.57
42519;BME280;28147;47.520;18.920;2023-10-08T05:43:36;98409.69;;;21.85;37.24
42519;BME280;28147;47.520;18.920;2023-10-08T05:46:14;98406.38;;;21.89;37.65
42519;BME280;28147;47.520;18.920;2023-10-08T05:48:54;98406.31;;;21.80;37.97
42519;BME280;28147;47.520;18.920;2023-10-08T05:51:42;98400.28;;;21.83;37.68
42519;BME280;28147;47.520;18.920;2023-10-08T05:54:21;98408.97;;;21.71;37.61
42519;BME280;28147;47.520;18.920;2023-10-08T05:56:53;98405.44;;;21.93;37.64
42519;BME280;28147;47.520;18.920;2023-10-08T05:59:44;98409.41;;;21.87;37.97
42519;BME280;28147;47.520;18.920;2023-10-08T06:02:29;98419.88;;;22.02;37.71
42519;BME280;28147;47.520;18.920;2023-10-08T06:04:59;98416.28;;;21.93;37.26
42519;BME280;28147;47.520;18.920;2023-10-08T06:07:43;98410.97;;;22.24;36.78
42519;BME280;28147;47.520;18.920;2023-10-08T06:10:15;98413.19;;;22.08;37.51
42519;BME280;28147;47.520;18.920;2023-10-08T06:13:16;98432.31;;;22.03;37.83
42519;BME280;28147;47.520;18.920;2023-10-08T06:15:43;98419.75;;;22.07;37.48
42519;BME280;28147;47.520;18.920;2023-10-08T06:18:25;98423.66;;;22.15;37.70
42519;BME280;28147;47.520;18.920;2023-10-08T06:21:03;98440.53;;;22.34;37.73
42519;BME280;28147;47.520;18.920;2023-10-08T06:23:40;98436.88;;;21.94;38.60
42519;BME280;28147;47.520;18.920;2023-10-08T06:26:07;98440.81;;;22.10;38.08
42519;BME280;28147;47.520;18.920;2023-10-08T06:28:37;98453.97;;;21.81;38.67
42519;BME280;28147;47.520;18.920;2023-10-08T06:31:04;98446.06;;;22.07;38.00
42519;BME280;28147;47.520;18.920;2023-10-08T06:33:40;98463.09;;;22.21;37.89
42519;BME280;28147;47.520;18.920;2023-10-08T06:36:06;98457.06;;;22.24;37.74
42519;BME280;28147;47.520;18.920;2023-10-08T06:38:45;98456.34;;;21.96;38.52
42519;BME280;28147;47.520;18.920;2023-10-08T06:41:15;98452.03;;;21.95;38.16
42519;BME280;28147;47.520;18.920;2023-10-08T06:43:44;98456.34;;;21.96;38.61
42519;BME280;28147;47.520;18.920;2023-10-08T06:46:16;98467.63;;;22.12;38.27
42519;BME280;28147;47.520;18.920;2023-10-08T06:48:45;98469.59;;;21.98;38.97
42519;BME280;28147;47.520;18.920;2023-10-08T06:51:12;98467.56;;;22.03;38.93
42519;BME280;28147;47.520;18.920;2023-10-08T06:53:42;98472.53;;;21.88;38.87
42519;BME280;28147;47.520;18.920;2023-10-08T06:56:13;98462.28;;;21.84;38.67
42519;BME280;28147;47.520;18.920;2023-10-08T06:58:39;98451.22;;;21.95;38.82
42519;BME280;28147;47.520;18.920;2023-10-08T07:01:07;98447.13;;;21.97;38.71
42519;BME280;28147;47.520;18.920;2023-10-08T07:03:38;98446.13;;;22.16;38.41
42519;BME280;28147;47.520;18.920;2023-10-08T07:09:55;98447.56;;;21.77;39.50
42519;BME280;28147;47.520;18.920;2023-10-08T07:12:21;98451.34;;;21.90;39.01
42519;BME280;28147;47.520;18.920;2023-10-08T07:14:49;98440.50;;;22.12;38.92
42519;BME280;28147;47.520;18.920;2023-10-08T07:17:17;98435.63;;;22.00;39.27
42519;BME280;28147;47.520;18.920;2023-10-08T07:19:45;98433.13;;;22.49;39.51
42519;BME280;28147;47.520;18.920;2023-10-08T07:22:15;98425.56;;;22.37;39.06
42519;BME280;28147;47.520;18.920;2023-10-08T07:24:47;98439.16;;;22.46;39.14
42519;BME280;28147;47.520;18.920;2023-10-08T07:27:16;98447.19;;;22.82;39.25
42519;BME280;28147;47.520;18.920;2023-10-08T07:29:47;98432.97;;;23.25;38.29
42519;BME280;28147;47.520;18.920;2023-10-08T07:32:12;98443.38;;;23.23;38.27
42519;BME280;28147;47.520;18.920;2023-10-08T07:34:40;98454.13;;;23.45;38.32
42519;BME280;28147;47.520;18.920;2023-10-08T07:37:06;98440.38;;;23.50;38.06
42519;BME280;28147;47.520;18.920;2023-10-08T07:39:31;98445.88;;;23.68;37.95
42519;BME280;28147;47.520;18.920;2023-10-08T07:41:59;98443.50;;;23.18;39.29
42519;BME280;28147;47.520;18.920;2023-10-08T07:44:25;98439.75;;;23.53;39.25
42519;BME280;28147;47.520;18.920;2023-10-08T07:46:55;98441.72;;;23.88;38.66
42519;BME280;28147;47.520;18.920;2023-10-08T07:49:24;98426.22;;;23.88;38.83
42519;BME280;28147;47.520;18.920;2023-10-08T07:51:57;98438.19;;;24.04;38.51
42519;BME280;28147;47.520;18.920;2023-10-08T07:54:24;98442.81;;;24.47;37.67
42519;BME280;28147;47.520;18.920;2023-10-08T07:56:53;98442.94;;;24.60;38.29
42519;BME280;28147;47.520;18.920;2023-10-08T07:59:41;98438.19;;;24.22;38.43
42519;BME280;28147;47.520;18.920;2023-10-08T08:02:14;98440.22;;;23.47;39.80
42519;BME280;28147;47.520;18.920;2023-10-08T08:04:41;98453.56;;;23.92;38.94
42519;BME280;28147;47.520;18.920;2023-10-08T08:07:08;98442.34;;;24.19;38.38
42519;BME280;28147;47.520;18.920;2023-10-08T08:09:43;98438.38;;;24.81;37.75
42519;BME280;28147;47.520;18.920;2023-10-08T08:12:20;98443.38;;;24.79;38.85
42519;BME280;28147;47.520;18.920;2023-10-08T08:14:47;98450.84;;;24.44;38.28
42519;BME280;28147;47.520;18.920;2023-10-08T08:17:13;98457.38;;;24.51;37.98
42519;BME280;28147;47.520;18.920;2023-10-08T08:19:43;98442.03;;;24.94;37.87
42519;BME280;28147;47.520;18.920;2023-10-08T08:22:15;98457.56;;;25.32;37.21
42519;BME280;28147;47.520;18.920;2023-10-08T08:24:55;98452.50;;;25.21;36.45
42519;BME280;28147;47.520;18.920;2023-10-08T08:27:30;98458.31;;;24.38;37.84
42519;BME280;28147;47.520;18.920;2023-10-08T08:29:58;98460.25;;;24.38;38.47
42519;BME280;28147;47.520;18.920;2023-10-08T08:32:39;98468.59;;;23.98;38.61
42519;BME280;28147;47.520;18.920;2023-10-08T08:35:07;98480.59;;;24.14;38.96
42519;BME280;28147;47.520;18.920;2023-10-08T08:37:34;98466.19;;;24.22;39.10
42519;BME280;28147;47.520;18.920;2023-10-08T08:40:04;98447.63;;;24.16;39.48
42519;BME280;28147;47.520;18.920;2023-10-08T08:42:46;98461.22;;;24.16;39.22
42519;BME280;28147;47.520;18.920;2023-10-08T08:45:19;98473.66;;;23.65;40.44
42519;BME280;28147;47.520;18.920;2023-10-08T08:47:49;98469.22;;;23.69;40.42
42519;BME280;28147;47.520;18.920;2023-10-08T08:50:15;98476.22;;;23.61;40.64
42519;BME280;28147;47.520;18.920;2023-10-08T08:52:42;98480.34;;;23.59;41.04
42519;BME280;28147;47.520;18.920;2023-10-08T08:55:11;98459.53;;;23.37;41.23
42519;BME280;28147;47.520;18.920;2023-10-08T08:57:49;98469.69;;;23.14;42.07
42519;BME280;28147;47.520;18.920;2023-10-08T09:00:17;98469.31;;;23.38;41.90
42519;BME280;28147;47.520;18.920;2023-10-08T09:02:47;98463.09;;;22.97;42.21
42519;BME280;28147;47.520;18.920;2023-10-08T09:05:14;98491.53;;;23.48;41.46
42519;BME280;28147;47.520;18.920;2023-10-08T09:08:02;98484.13;;;23.23;42.10
42519;BME280;28147;47.520;18.920;2023-10-08T09:10:29;98488.50;;;23.01;42.29
42519;BME280;28147;47.520;18.920;2023-10-08T09:12:58;98495.28;;;22.90;43.26
42519;BME280;28147;47.520;18.920;2023-10-08T09:15:27;98505.56;;;22.93;42.63
42519;BME280;28147;47.520;18.920;2023-10-08T09:17:54;98489.91;;;22.99;42.84
42519;BME280;28147;47.520;18.920;2023-10-08T09:20:20;98514.66;;;22.97;42.41
42519;BME280;28147;47.520;18.920;2023-10-08T09:22:46;98512.16;;;23.10;42.85
42519;BME280;28147;47.520;18.920;2023-10-08T09:25:20;98517.38;;;22.97;43.10
42519;BME280;28147;47.520;18.920;2023-10-08T09:27:54;98530.56;;;22.90;43.20
42519;BME280;28147;47.520;18.920;2023-10-08T09:30:21;98536.34;;;22.66;43.61
42519;BME280;28147;47.520;18.920;2023-10-08T09:32:47;98550.47;;;22.54;43.80
42519;BME280;28147;47.520;18.920;2023-10-08T09:35:15;98550.72;;;22.44;44.18
42519;BME280;28147;47.520;18.920;2023-10-08T09:37:41;98562.50;;;22.85;43.73
42519;BME280;28147;47.520;18.920;2023-10-08T09:40:07;98571.72;;;22.61;44.29
42519;BME280;28147;47.520;18.920;2023-10-08T09:42:41;98558.84;;;22.44;44.54
42519;BME280;28147;47.520;18.920;2023-10-08T09:45:07;98560.31;;;22.28;44.99
42519;BME280;28147;47.520;18.920;2023-10-08T09:47:36;98561.31;;;22.54;44.42
42519;BME280;28147;47.520;18.920;2023-10-08T09:50:05;98573.41;;;22.48;44.88
42519;BME280;28147;47.520;18.920;2023-10-08T09:55:23;98585.19;;;22.89;44.32
42519;BME280;28147;47.520;18.920;2023-10-08T09:57:48;98602.88;;;22.86;44.62
42519;BME280;28147;47.520;18.920;2023-10-08T10:00:17;98605.66;;;22.72;45.01
42519;BME280;28147;47.520;18.920;2023-10-08T10:02:45;98620.66;;;22.70;45.71
42519;BME280;28147;47.520;18.920;2023-10-08T10:05:12;98617.09;;;22.24;46.57
42519;BME280;28147;47.520;18.920;2023-10-08T10:07:37;98642.66;;;22.68;45.85
42519;BME280;28147;47.520;18.920;2023-10-08T10:10:29;98630.53;;;22.66;45.65
42519;BME280;28147;47.520;18.920;2023-10-08T10:13:09;98631.13;;;22.63;45.80
42519;BME280;28147;47.520;18.920;2023-10-08T10:15:38;98627.56;;;22.76;45.99
42519;BME280;28147;47.520;18.920;2023-10-08T10:20:45;98626.00;;;22.61;46.25
42519;BME280;28147;47.520;18.920;2023-10-08T10:23:39;98627.25;;;22.55;46.51
42519;BME280;28147;47.520;18.920;2023-10-08T10:31:39;98620.56;;;22.61;44.43
42519;BME280;28147;47.520;18.920;2023-10-08T10:34:11;98616.19;;;22.51;44.62
42519;BME280;28147;47.520;18.920;2023-10-08T10:36:39;98634.94;;;22.39;44.40
42519;BME280;28147;47.520;18.920;2023-10-08T10:39:08;98638.06;;;22.19;44.72
42519;BME280;28147;47.520;18.920;2023-10-08T10:41:47;98650.03;;;21.90;44.71
42519;BME280;28147;47.520;18.920;2023-10-08T10:44:14;98656.22;;;22.04;44.30
42519;BME280;28147;47.520;18.920;2023-10-08T10:46:47;98640.78;;;22.19;44.13
42519;BME280;28147;47.520;18.920;2023-10-08T10:49:19;98644.91;;;22.16;44.33
42519;BME280;28147;47.520;18.920;2023-10-08T10:51:53;98657.44;;;22.26;44.05
42519;BME280;28147;47.520;18.920;2023-10-08T10:54:22;98685.13;;;21.81;43.73
42519;BME280;28147;47.520;18.920;2023-10-08T10:56:49;98681.50;;;21.45;43.68
42519;BME280;28147;47.520;18.920;2023-10-08T10:59:31;98681.66;;;21.34;44.02
42519;BME280;28147;47.520;18.920;2023-10-08T11:02:05;98674.91;;;21.32;44.45
42519;BME280;28147;47.520;18.920;2023-10-08T11:04:46;98679.31;;;21.60;43.40
42519;BME280;28147;47.520;18.920;2023-10-08T11:07:18;98695.31;;;21.10;43.16
42519;BME280;28147;47.520;18.920;2023-10-08T11:09:44;98675.88;;;21.55;42.42
42519;BME280;28147;47.520;18.920;2023-10-08T11:12:13;98697.78;;;21.72;42.50
42519;BME280;28147;47.520;18.920;2023-10-08T11:14:46;98694.69;;;21.13;43.66
42519;BME280;28147;47.520;18.920;2023-10-08T11:17:16;98692.25;;;21.31;42.14
42519;BME280;28147;47.520;18.920;2023-10-08T11:19:43;98694.50;;;21.43;41.45
42519;BME280;28147;47.520;18.920;2023-10-08T11:22:12;98688.75;;;21.77;40.27
42519;BME280;28147;47.520;18.920;2023-10-08T11:24:42;98685.50;;;21.28;40.52
42519;BME280;28147;47.520;18.920;2023-10-08T11:27:13;98692.34;;;21.26;40.44
42519;BME280;28147;47.520;18.920;2023-10-08T11:29:51;98698.63;;;21.21;40.05
42519;BME280;28147;47.520;18.920;2023-10-08T11:32:22;98695.25;;;20.78;40.22
42519;BME280;28147;47.520;18.920;2023-10-08T11:34:57;98694.00;;;20.51;40.55
42519;BME280;28147;47.520;18.920;2023-10-08T11:37:29;98698.59;;;20.51;40.94
42519;BME280;28147;47.520;18.920;2023-10-08T11:39:58;98709.56;;;20.59;40.81
42519;BME280;28147;47.520;18.920;2023-10-08T11:42:24;98699.09;;;20.53;40.85
42519;BME280;28147;47.520;18.920;2023-10-08T11:45:11;98714.41;;;20.38;41.70
42519;BME280;28147;47.520;18.920;2023-10-08T11:47:53;98713.88;;;20.60;41.60
42519;BME280;28147;47.520;18.920;2023-10-08T11:50:27;98721.56;;;20.29;41.42
42519;BME280;28147;47.520;18.920;2023-10-08T11:53:00;98712.88;;;20.32;41.05
42519;BME280;28147;47.520;18.920;2023-10-08T11:55:34;98725.91;;;20.73;40.30
42519;BME280;28147;47.520;18.920;2023-10-08T11:58:01;98730.06;;;20.84;40.57
42519;BME280;28147;47.520;18.920;2023-10-08T12:00:36;98725.84;;;20.30;41.10
42519;BME280;28147;47.520;18.920;2023-10-08T12:03:02;98728.56;;;20.06;40.88
42519;BME280;28147;47.520;18.920;2023-10-08T12:05:30;98728.22;;;20.37;40.30
42519;BME280;28147;47.520;18.920;2023-10-08T12:07:57;98742.16;;;20.49;40.11
42519;BME280;28147;47.520;18.920;2023-10-08T12:10:23;98743.63;;;20.60;40.32
42519;BME280;28147;47.520;18.920;2023-10-08T12:12:53;98750.50;;;20.53;40.37
42519;BME280;28147;47.520;18.920;2023-10-08T12:15:22;98750.97;;;20.12;41.08
42519;BME280;28147;47.520;18.920;2023-10-08T12:17:51;98751.28;;;20.29;41.26
42519;BME280;28147;47.520;18.920;2023-10-08T12:20:36;98758.03;;;20.08;41.29
42519;BME280;28147;47.520;18.920;2023-10-08T12:23:03;98765.63;;;20.30;41.22
42519;BME280;28147;47.520;18.920;2023-10-08T12:25:30;98776.66;;;20.09;41.65
42519;BME280;28147;47.520;18.920;2023-10-08T12:28:00;98768.94;;;20.22;41.13
42519;BME280;28147;47.520;18.920;2023-10-08T12:30:32;98756.88;;;19.90;41.70
42519;BME280;28147;47.520;18.920;2023-10-08T12:33:05;98774.13;;;19.94;42.13
42519;BME280;28147;47.520;18.920;2023-10-08T12:35:31;98789.41;;;20.04;41.87
42519;BME280;28147;47.520;18.920;2023-10-08T12:37:57;98787.69;;;19.89;41.92
42519;BME280;28147;47.520;18.920;2023-10-08T12:40:22;98772.38;;;20.03;41.54
42519;BME280;28147;47.520;18.920;2023-10-08T12:42:51;98787.31;;;19.96;42.24
42519;BME280;28147;47.520;18.920;2023-10-08T12:45:17;98789.78;;;20.21;42.14
42519;BME280;28147;47.520;18.920;2023-10-08T12:47:49;98787.94;;;20.16;41.78
42519;BME280;28147;47.520;18.920;2023-10-08T12:50:19;98796.44;;;20.29;41.64
42519;BME280;28147;47.520;18.920;2023-10-08T12:53:11;98810.53;;;20.26;41.37
42519;BME280;28147;47.520;18.920;2023-10-08T12:55:40;98808.06;;;20.58;40.94
42519;BME280;28147;47.520;18.920;2023-10-08T12:58:06;98820.28;;;20.27;41.39
42519;BME280;28147;47.520;18.920;2023-10-08T13:00:37;98818.94;;;19.95;41.83
42519;BME280;28147;47.520;18.920;2023-10-08T13:03:04;98814.13;;;19.92;41.28
42519;BME280;28147;47.520;18.920;2023-10-08T13:05:32;98825.97;;;19.96;41.45
42519;BME280;28147;47.520;18.920;2023-10-08T13:07:59;98821.78;;;19.80;41.12
42519;BME280;28147;47.520;18.920;2023-10-08T13:10:35;98826.25;;;19.95;40.95
42519;BME280;28147;47.520;18.920;2023-10-08T13:13:01;98836.03;;;20.20;40.70
42519;BME280;28147;47.520;18.920;2023-10-08T13:15:26;98834.44;;;20.42;40.34
42519;BME280;28147;47.520;18.920;2023-10-08T13:17:52;98835.84;;;19.82;40.59
42519;BME280;28147;47.520;18.920;2023-10-08T13:20:18;98835.66;;;20.02;40.04
42519;BME280;28147;47.520;18.920;2023-10-08T13:22:43;98846.41;;;20.07;40.16
42519;BME280;28147;47.520;18.920;2023-10-08T13:25:10;98846.59;;;19.48;40.74
42519;BME280;28147;47.520;18.920;2023-10-08T13:27:38;98867.00;;;19.69;40.43
42519;BME280;28147;47.520;18.920;2023-10-08T13:30:07;98870.84;;;19.92;40.25